sensor_id;sensor_type;location;lat;lon;timestamp;P1;P2;P0
72485;PMS5003;60509;47.308;-122.428;2022-11-10T00:00:20;4555;4555;
72485;PMS5003;60509;47.308;-122.428;2022-11-10T00:02:44;4426;4426;
72485;PMS5003;60509;47.308;-122.428;2022-11-10T00:05:10;4535;4535;
72485;PMS5003;60509;47.308;-122.428;2022-11-10T00:07:35;4413;4413;
72485;PMS5003;60509;47.308;-122.428;2022-11-10T00:10:01;4470;4470;
72485;PMS5003;60509;47.308;-122.428;2022-11-10T00:12:27;4457;4457;
72485;PMS5003;60509;47.308;-122.428;2022-11-10T00:14:52;4483;4483;
72485;PMS5003;60509;47.308;-122.428;2022-11-10T00:17:18;4420;4420;
72485;PMS5003;60509;47.308;-122.428;2022-11-10T00:19:44;4420;4420;
72485;PMS5003;60509;47.308;-122.428;2022-11-10T00:22:09;4413;4413;
72485;PMS5003;60509;47.308;-122.428;2022-11-10T00:24:34;4413;4413;
72485;PMS5003;60509;47.308;-122.428;2022-11-10T00:27:00;4509;4509;
72485;PMS5003;60509;47.308;-122.428;2022-11-10T00:29:26;4615;4615;
72485;PMS5003;60509;47.308;-122.428;2022-11-10T00:31:51;4575;4575;
72485;PMS5003;60509;47.308;-122.428;2022-11-10T00:34:17;4548;4548;
72485;PMS5003;60509;47.308;-122.428;2022-11-10T00:36:43;4582;4582;
72485;PMS5003;60509;47.308;-122.428;2022-11-10T00:39:08;4562;4562;
72485;PMS5003;60509;47.308;-122.428;2022-11-10T00:41:34;4451;4451;
72485;PMS5003;60509;47.308;-122.428;2022-11-10T00:43:59;4401;4401;
72485;PMS5003;60509;47.308;-122.428;2022-11-10T00:46:25;4464;4464;
72485;PMS5003;60509;47.308;-122.428;2022-11-10T00:48:51;4528;4528;
72485;PMS5003;60509;47.308;-122.428;2022-11-10T00:51:17;4515;4515;
72485;PMS5003;60509;47.308;-122.428;2022-11-10T00:53:42;4445;4445;
72485;PMS5003;60509;47.308;-122.428;2022-11-10T00:56:07;4407;4407;
72485;PMS5003;60509;47.308;-122.428;2022-11-10T00:58:33;4413;4413;
72485;PMS5003;60509;47.308;-122.428;2022-11-10T01:01:00;4496;4496;
72485;PMS5003;60509;47.308;-122.428;2022-11-10T01:03:24;4413;4413;
72485;PMS5003;60509;47.308;-122.428;2022-11-10T01:05:50;4489;4489;
72485;PMS5003;60509;47.308;-122.428;2022-11-10T01:08:16;4522;4522;
72485;PMS5003;60509;47.308;-122.428;2022-11-10T01:10:41;4515;4515;
72485;PMS5003;60509;47.308;-122.428;2022-11-10T01:13:07;4496;4496;
72485;PMS5003;60509;47.308;-122.428;2022-11-10T01:15:33;4477;4477;
72485;PMS5003;60509;47.308;-122.428;2022-11-10T01:17:58;4464;4464;
72485;PMS5003;60509;47.308;-122.428;2022-11-10T01:20:24;4464;4464;
72485;PMS5003;60509;47.308;-122.428;2022-11-10T01:22:49;4451;4451;
72485;PMS5003;60509;47.308;-122.428;2022-11-10T01:25:15;4457;4457;
72485;PMS5003;60509;47.308;-122.428;2022-11-10T01:27:41;4438;4438;
72485;PMS5003;60509;47.308;-122.428;2022-11-10T01:30:07;4445;4445;
72485;PMS5003;60509;47.308;-122.428;2022-11-10T01:32:32;4340;4340;
72485;PMS5003;60509;47.308;-122.428;2022-11-10T01:34:58;4376;4376;
72485;PMS5003;60509;47.308;-122.428;2022-11-10T01:37:23;4370;4370;
72485;PMS5003;60509;47.308;-122.428;2022-11-10T01:39:49;4364;4364;
72485;PMS5003;60509;47.308;-122.428;2022-11-10T01:42:15;4370;4370;
72485;PMS5003;60509;47.308;-122.428;2022-11-10T01:44:40;4298;4298;
72485;PMS5003;60509;47.308;-122.428;2022-11-10T01:47:06;4358;4358;
72485;PMS5003;60509;47.308;-122.428;2022-11-10T01:49:32;4304;4304;
72485;PMS5003;60509;47.308;-122.428;2022-11-10T01:51:58;4304;4304;
72485;PMS5003;60509;47.308;-122.428;2022-11-10T01:54:24;4286;4286;
72485;PMS5003;60509;47.308;-122.428;2022-11-10T01:56:49;4334;4334;
72485;PMS5003;60509;47.308;-122.428;2022-11-10T01:59:16;4432;4432;
72485;PMS5003;60509;47.308;-122.428;2022-11-10T02:01:40;4340;4340;
72485;PMS5003;60509;47.308;-122.428;2022-11-10T02:04:07;4310;4310;
72485;PMS5003;60509;47.308;-122.428;2022-11-10T02:06:32;4420;4420;
72485;PMS5003;60509;47.308;-122.428;2022-11-10T02:08:58;4352;4352;
72485;PMS5003;60509;47.308;-122.428;2022-11-10T02:11:23;4432;4432;
72485;PMS5003;60509;47.308;-122.428;2022-11-10T02:13:49;4426;4426;
72485;PMS5003;60509;47.308;-122.428;2022-11-10T02:16:14;4401;4401;
72485;PMS5003;60509;47.308;-122.428;2022-11-10T02:18:40;4364;4364;
72485;PMS5003;60509;47.308;-122.428;2022-11-10T02:21:06;4292;4292;
72485;PMS5003;60509;47.308;-122.428;2022-11-10T02:23:48;4257;4257;
72485;PMS5003;60509;47.308;-122.428;2022-11-10T02:25:57;4322;4322;
72485;PMS5003;60509;47.308;-122.428;2022-11-10T02:28:23;4280;4280;
72485;PMS5003;60509;47.308;-122.428;2022-11-10T02:30:49;4274;4274;
72485;PMS5003;60509;47.308;-122.428;2022-11-10T02:33:14;4340;4340;
72485;PMS5003;60509;47.308;-122.428;2022-11-10T02:35:40;4292;4292;
72485;PMS5003;60509;47.308;-122.428;2022-11-10T02:38:06;4292;4292;
72485;PMS5003;60509;47.308;-122.428;2022-11-10T02:40:31;4304;4304;
72485;PMS5003;60509;47.308;-122.428;2022-11-10T02:42:57;4322;4322;
72485;PMS5003;60509;47.308;-122.428;2022-11-10T02:45:23;4304;4304;
72485;PMS5003;60509;47.308;-122.428;2022-11-10T02:47:48;4310;4310;
72485;PMS5003;60509;47.308;-122.428;2022-11-10T02:50:14;4274;4274;
72485;PMS5003;60509;47.308;-122.428;2022-11-10T02:52:40;4286;4286;
72485;PMS5003;60509;47.308;-122.428;2022-11-10T02:55:06;4298;4298;
72485;PMS5003;60509;47.308;-122.428;2022-11-10T02:57:31;4298;4298;
72485;PMS5003;60509;47.308;-122.428;2022-11-10T02:59:57;4280;4280;
72485;PMS5003;60509;47.308;-122.428;2022-11-10T03:02:23;4280;4280;
72485;PMS5003;60509;47.308;-122.428;2022-11-10T03:04:48;4280;4280;
72485;PMS5003;60509;47.308;-122.428;2022-11-10T03:07:14;4322;4322;
72485;PMS5003;60509;47.308;-122.428;2022-11-10T03:09:40;4328;4328;
72485;PMS5003;60509;47.308;-122.428;2022-11-10T03:12:06;4334;4334;
72485;PMS5003;60509;47.308;-122.428;2022-11-10T03:14:31;4286;4286;
72485;PMS5003;60509;47.308;-122.428;2022-11-10T03:16:57;4322;4322;
72485;PMS5003;60509;47.308;-122.428;2022-11-10T03:19:23;4269;4269;
72485;PMS5003;60509;47.308;-122.428;2022-11-10T03:21:48;4316;4316;
72485;PMS5003;60509;47.308;-122.428;2022-11-10T03:24:14;4401;4401;
72485;PMS5003;60509;47.308;-122.428;2022-11-10T03:26:40;4407;4407;
72485;PMS5003;60509;47.308;-122.428;2022-11-10T03:29:05;4413;4413;
72485;PMS5003;60509;47.308;-122.428;2022-11-10T03:31:31;4413;4413;
72485;PMS5003;60509;47.308;-122.428;2022-11-10T03:33:57;4413;4413;
72485;PMS5003;60509;47.308;-122.428;2022-11-10T03:36:23;4413;4413;
72485;PMS5003;60509;47.308;-122.428;2022-11-10T03:38:48;4382;4382;
72485;PMS5003;60509;47.308;-122.428;2022-11-10T03:41:14;4395;4395;
72485;PMS5003;60509;47.308;-122.428;2022-11-10T03:43:40;4401;4401;
72485;PMS5003;60509;47.308;-122.428;2022-11-10T03:46:06;4407;4407;
72485;PMS5003;60509;47.308;-122.428;2022-11-10T03:48:31;4395;4395;
72485;PMS5003;60509;47.308;-122.428;2022-11-10T03:50:57;4401;4401;
72485;PMS5003;60509;47.308;-122.428;2022-11-10T03:53:23;4395;4395;
72485;PMS5003;60509;47.308;-122.428;2022-11-10T03:55:48;4395;4395;
72485;PMS5003;60509;47.308;-122.428;2022-11-10T03:58:14;4395;4395;
72485;PMS5003;60509;47.308;-122.428;2022-11-10T04:00:40;4432;4432;
72485;PMS5003;60509;47.308;-122.428;2022-11-10T04:03:06;4426;4426;
72485;PMS5003;60509;47.308;-122.428;2022-11-10T04:05:31;4401;4401;
72485;PMS5003;60509;47.308;-122.428;2022-11-10T04:07:58;4389;4389;
72485;PMS5003;60509;47.308;-122.428;2022-11-10T04:10:23;4364;4364;
72485;PMS5003;60509;47.308;-122.428;2022-11-10T04:12:49;4310;4310;
72485;PMS5003;60509;47.308;-122.428;2022-11-10T04:15:14;4328;4328;
72485;PMS5003;60509;47.308;-122.428;2022-11-10T04:17:40;4310;4310;
72485;PMS5003;60509;47.308;-122.428;2022-11-10T04:20:06;4298;4298;
72485;PMS5003;60509;47.308;-122.428;2022-11-10T04:22:31;4340;4340;
72485;PMS5003;60509;47.308;-122.428;2022-11-10T04:24:57;4328;4328;
72485;PMS5003;60509;47.308;-122.428;2022-11-10T04:27:23;4304;4304;
72485;PMS5003;60509;47.308;-122.428;2022-11-10T04:29:48;4304;4304;
72485;PMS5003;60509;47.308;-122.428;2022-11-10T04:32:14;4328;4328;
72485;PMS5003;60509;47.308;-122.428;2022-11-10T04:34:40;4407;4407;
72485;PMS5003;60509;47.308;-122.428;2022-11-10T04:37:05;4389;4389;
72485;PMS5003;60509;47.308;-122.428;2022-11-10T04:39:31;4364;4364;
72485;PMS5003;60509;47.308;-122.428;2022-11-10T04:41:57;4364;4364;
72485;PMS5003;60509;47.308;-122.428;2022-11-10T04:44:23;4407;4407;
72485;PMS5003;60509;47.308;-122.428;2022-11-10T04:46:48;4395;4395;
72485;PMS5003;60509;47.308;-122.428;2022-11-10T04:49:14;4395;4395;
72485;PMS5003;60509;47.308;-122.428;2022-11-10T04:51:40;4322;4322;
72485;PMS5003;60509;47.308;-122.428;2022-11-10T04:54:06;4304;4304;
72485;PMS5003;60509;47.308;-122.428;2022-11-10T04:56:31;4340;4340;
72485;PMS5003;60509;47.308;-122.428;2022-11-10T04:58:57;4401;4401;
72485;PMS5003;60509;47.308;-122.428;2022-11-10T05:01:23;4438;4438;
72485;PMS5003;60509;47.308;-122.428;2022-11-10T05:03:49;4420;4420;
72485;PMS5003;60509;47.308;-122.428;2022-11-10T05:06:14;4352;4352;
72485;PMS5003;60509;47.308;-122.428;2022-11-10T05:08:40;4310;4310;
72485;PMS5003;60509;47.308;-122.428;2022-11-10T05:11:05;4420;4420;
72485;PMS5003;60509;47.308;-122.428;2022-11-10T05:13:31;4334;4334;
72485;PMS5003;60509;47.308;-122.428;2022-11-10T05:15:56;4382;4382;
72485;PMS5003;60509;47.308;-122.428;2022-11-10T05:18:22;4376;4376;
72485;PMS5003;60509;47.308;-122.428;2022-11-10T05:20:48;4316;4316;
72485;PMS5003;60509;47.308;-122.428;2022-11-10T05:23:13;4451;4451;
72485;PMS5003;60509;47.308;-122.428;2022-11-10T05:25:40;4477;4477;
72485;PMS5003;60509;47.308;-122.428;2022-11-10T05:28:05;4445;4445;
72485;PMS5003;60509;47.308;-122.428;2022-11-10T05:30:30;4438;4438;
72485;PMS5003;60509;47.308;-122.428;2022-11-10T05:32:56;4413;4413;
72485;PMS5003;60509;47.308;-122.428;2022-11-10T05:35:22;4401;4401;
72485;PMS5003;60509;47.308;-122.428;2022-11-10T05:37:47;4310;4310;
72485;PMS5003;60509;47.308;-122.428;2022-11-10T05:40:13;4395;4395;
72485;PMS5003;60509;47.308;-122.428;2022-11-10T05:42:41;4426;4426;
72485;PMS5003;60509;47.308;-122.428;2022-11-10T05:45:05;4457;4457;
72485;PMS5003;60509;47.308;-122.428;2022-11-10T05:47:30;4432;4432;
72485;PMS5003;60509;47.308;-122.428;2022-11-10T05:49:55;4413;4413;
72485;PMS5003;60509;47.308;-122.428;2022-11-10T05:52:21;4382;4382;
72485;PMS5003;60509;47.308;-122.428;2022-11-10T05:54:47;4370;4370;
72485;PMS5003;60509;47.308;-122.428;2022-11-10T05:57:12;4389;4389;
72485;PMS5003;60509;47.308;-122.428;2022-11-10T05:59:38;4346;4346;
72485;PMS5003;60509;47.308;-122.428;2022-11-10T06:02:04;4334;4334;
72485;PMS5003;60509;47.308;-122.428;2022-11-10T06:04:29;4451;4451;
72485;PMS5003;60509;47.308;-122.428;2022-11-10T06:06:55;4451;4451;
72485;PMS5003;60509;47.308;-122.428;2022-11-10T06:09:21;4470;4470;
72485;PMS5003;60509;47.308;-122.428;2022-11-10T06:11:46;4358;4358;
72485;PMS5003;60509;47.308;-122.428;2022-11-10T06:14:12;4346;4346;
72485;PMS5003;60509;47.308;-122.428;2022-11-10T06:16:37;4334;4334;
72485;PMS5003;60509;47.308;-122.428;2022-11-10T06:19:03;4376;4376;
72485;PMS5003;60509;47.308;-122.428;2022-11-10T06:21:29;4322;4322;
72485;PMS5003;60509;47.308;-122.428;2022-11-10T06:23:54;4370;4370;
72485;PMS5003;60509;47.308;-122.428;2022-11-10T06:26:20;4395;4395;
72485;PMS5003;60509;47.308;-122.428;2022-11-10T06:28:46;4316;4316;
72485;PMS5003;60509;47.308;-122.428;2022-11-10T06:31:11;4451;4451;
72485;PMS5003;60509;47.308;-122.428;2022-11-10T06:33:37;4328;4328;
72485;PMS5003;60509;47.308;-122.428;2022-11-10T06:36:03;4376;4376;
72485;PMS5003;60509;47.308;-122.428;2022-11-10T06:38:28;4340;4340;
72485;PMS5003;60509;47.308;-122.428;2022-11-10T06:40:54;4340;4340;
72485;PMS5003;60509;47.308;-122.428;2022-11-10T06:43:19;4535;4535;
72485;PMS5003;60509;47.308;-122.428;2022-11-10T06:45:45;4496;4496;
72485;PMS5003;60509;47.308;-122.428;2022-11-10T06:48:11;4522;4522;
72485;PMS5003;60509;47.308;-122.428;2022-11-10T06:50:36;4522;4522;
72485;PMS5003;60509;47.308;-122.428;2022-11-10T06:53:02;4548;4548;
72485;PMS5003;60509;47.308;-122.428;2022-11-10T06:55:28;4535;4535;
72485;PMS5003;60509;47.308;-122.428;2022-11-10T06:57:53;4528;4528;
72485;PMS5003;60509;47.308;-122.428;2022-11-10T07:00:19;4528;4528;
72485;PMS5003;60509;47.308;-122.428;2022-11-10T07:02:44;4515;4515;
72485;PMS5003;60509;47.308;-122.428;2022-11-10T07:05:10;4522;4522;
72485;PMS5003;60509;47.308;-122.428;2022-11-10T07:07:36;4522;4522;
72485;PMS5003;60509;47.308;-122.428;2022-11-10T07:10:01;4483;4483;
72485;PMS5003;60509;47.308;-122.428;2022-11-10T07:12:27;4489;4489;
72485;PMS5003;60509;47.308;-122.428;2022-11-10T07:14:53;4470;4470;
72485;PMS5003;60509;47.308;-122.428;2022-11-10T07:17:18;4522;4522;
72485;PMS5003;60509;47.308;-122.428;2022-11-10T07:19:44;4522;4522;
72485;PMS5003;60509;47.308;-122.428;2022-11-10T07:22:09;4496;4496;
72485;PMS5003;60509;47.308;-122.428;2022-11-10T07:24:35;4483;4483;
72485;PMS5003;60509;47.308;-122.428;2022-11-10T07:27:00;4451;4451;
72485;PMS5003;60509;47.308;-122.428;2022-11-10T07:29:26;4407;4407;
72485;PMS5003;60509;47.308;-122.428;2022-11-10T07:31:52;4358;4358;
72485;PMS5003;60509;47.308;-122.428;2022-11-10T07:34:17;4346;4346;
72485;PMS5003;60509;47.308;-122.428;2022-11-10T07:36:43;4358;4358;
72485;PMS5003;60509;47.308;-122.428;2022-11-10T07:39:09;4364;4364;
72485;PMS5003;60509;47.308;-122.428;2022-11-10T07:41:34;4358;4358;
72485;PMS5003;60509;47.308;-122.428;2022-11-10T07:44:00;4413;4413;
72485;PMS5003;60509;47.308;-122.428;2022-11-10T07:46:25;4389;4389;
72485;PMS5003;60509;47.308;-122.428;2022-11-10T07:48:51;4328;4328;
72485;PMS5003;60509;47.308;-122.428;2022-11-10T07:51:16;4352;4352;
72485;PMS5003;60509;47.308;-122.428;2022-11-10T07:53:42;4389;4389;
72485;PMS5003;60509;47.308;-122.428;2022-11-10T07:56:08;4370;4370;
72485;PMS5003;60509;47.308;-122.428;2022-11-10T07:58:33;4364;4364;
72485;PMS5003;60509;47.308;-122.428;2022-11-10T08:00:59;4451;4451;
72485;PMS5003;60509;47.308;-122.428;2022-11-10T08:03:24;4496;4496;
72485;PMS5003;60509;47.308;-122.428;2022-11-10T08:05:50;4457;4457;
72485;PMS5003;60509;47.308;-122.428;2022-11-10T08:08:16;4477;4477;
72485;PMS5003;60509;47.308;-122.428;2022-11-10T08:10:42;4496;4496;
72485;PMS5003;60509;47.308;-122.428;2022-11-10T08:13:08;4509;4509;
72485;PMS5003;60509;47.308;-122.428;2022-11-10T08:15:33;4496;4496;
72485;PMS5003;60509;47.308;-122.428;2022-11-10T08:17:59;4489;4489;
72485;PMS5003;60509;47.308;-122.428;2022-11-10T08:20:24;4515;4515;
72485;PMS5003;60509;47.308;-122.428;2022-11-10T08:22:51;4483;4483;
72485;PMS5003;60509;47.308;-122.428;2022-11-10T08:25:15;4477;4477;
72485;PMS5003;60509;47.308;-122.428;2022-11-10T08:27:40;4470;4470;
72485;PMS5003;60509;47.308;-122.428;2022-11-10T08:30:07;4451;4451;
72485;PMS5003;60509;47.308;-122.428;2022-11-10T08:32:32;4470;4470;
72485;PMS5003;60509;47.308;-122.428;2022-11-10T08:34:58;4464;4464;
72485;PMS5003;60509;47.308;-122.428;2022-11-10T08:37:25;4438;4438;
72485;PMS5003;60509;47.308;-122.428;2022-11-10T08:39:49;4477;4477;
72485;PMS5003;60509;47.308;-122.428;2022-11-10T08:42:14;4477;4477;
72485;PMS5003;60509;47.308;-122.428;2022-11-10T08:44:40;4470;4470;
72485;PMS5003;60509;47.308;-122.428;2022-11-10T08:47:06;4470;4470;
72485;PMS5003;60509;47.308;-122.428;2022-11-10T08:49:31;4477;4477;
72485;PMS5003;60509;47.308;-122.428;2022-11-10T08:51:57;4470;4470;
72485;PMS5003;60509;47.308;-122.428;2022-11-10T08:54:23;4464;4464;
72485;PMS5003;60509;47.308;-122.428;2022-11-10T08:56:48;4483;4483;
72485;PMS5003;60509;47.308;-122.428;2022-11-10T08:59:14;4489;4489;
72485;PMS5003;60509;47.308;-122.428;2022-11-10T09:01:40;4477;4477;
72485;PMS5003;60509;47.308;-122.428;2022-11-10T09:04:05;4470;4470;
72485;PMS5003;60509;47.308;-122.428;2022-11-10T09:06:31;4477;4477;
72485;PMS5003;60509;47.308;-122.428;2022-11-10T09:08:56;4470;4470;
72485;PMS5003;60509;47.308;-122.428;2022-11-10T09:11:22;4451;4451;
72485;PMS5003;60509;47.308;-122.428;2022-11-10T09:13:48;4438;4438;
72485;PMS5003;60509;47.308;-122.428;2022-11-10T09:16:13;4457;4457;
72485;PMS5003;60509;47.308;-122.428;2022-11-10T09:18:39;4477;4477;
72485;PMS5003;60509;47.308;-122.428;2022-11-10T09:21:04;4502;4502;
72485;PMS5003;60509;47.308;-122.428;2022-11-10T09:23:30;4496;4496;
72485;PMS5003;60509;47.308;-122.428;2022-11-10T09:25:56;4483;4483;
72485;PMS5003;60509;47.308;-122.428;2022-11-10T09:28:22;4464;4464;
72485;PMS5003;60509;47.308;-122.428;2022-11-10T09:30:47;4426;4426;
72485;PMS5003;60509;47.308;-122.428;2022-11-10T09:33:12;4451;4451;
72485;PMS5003;60509;47.308;-122.428;2022-11-10T09:35:38;4451;4451;
72485;PMS5003;60509;47.308;-122.428;2022-11-10T09:38:04;4438;4438;
72485;PMS5003;60509;47.308;-122.428;2022-11-10T09:40:34;4413;4413;
72485;PMS5003;60509;47.308;-122.428;2022-11-10T09:42:55;4420;4420;
72485;PMS5003;60509;47.308;-122.428;2022-11-10T09:45:22;4457;4457;
72485;PMS5003;60509;47.308;-122.428;2022-11-10T09:47:47;4426;4426;
72485;PMS5003;60509;47.308;-122.428;2022-11-10T09:50:14;4470;4470;
72485;PMS5003;60509;47.308;-122.428;2022-11-10T09:52:37;4477;4477;
72485;PMS5003;60509;47.308;-122.428;2022-11-10T09:55:04;4445;4445;
72485;PMS5003;60509;47.308;-122.428;2022-11-10T09:57:29;4464;4464;
72485;PMS5003;60509;47.308;-122.428;2022-11-10T09:59:54;4426;4426;
72485;PMS5003;60509;47.308;-122.428;2022-11-10T10:02:22;4413;4413;
72485;PMS5003;60509;47.308;-122.428;2022-11-10T10:04:53;4413;4413;
72485;PMS5003;60509;47.308;-122.428;2022-11-10T10:07:12;4438;4438;
72485;PMS5003;60509;47.308;-122.428;2022-11-10T10:09:39;4420;4420;
72485;PMS5003;60509;47.308;-122.428;2022-11-10T10:12:06;4395;4395;
72485;PMS5003;60509;47.308;-122.428;2022-11-10T10:14:33;4401;4401;
72485;PMS5003;60509;47.308;-122.428;2022-11-10T10:16:57;4445;4445;
72485;PMS5003;60509;47.308;-122.428;2022-11-10T10:19:22;4420;4420;
72485;PMS5003;60509;47.308;-122.428;2022-11-10T10:21:48;4420;4420;
72485;PMS5003;60509;47.308;-122.428;2022-11-10T10:24:12;4420;4420;
72485;PMS5003;60509;47.308;-122.428;2022-11-10T10:26:38;4413;4413;
72485;PMS5003;60509;47.308;-122.428;2022-11-10T10:29:04;4376;4376;
72485;PMS5003;60509;47.308;-122.428;2022-11-10T10:31:31;4395;4395;
72485;PMS5003;60509;47.308;-122.428;2022-11-10T10:33:53;4401;4401;
72485;PMS5003;60509;47.308;-122.428;2022-11-10T10:36:21;4370;4370;
72485;PMS5003;60509;47.308;-122.428;2022-11-10T10:38:45;4432;4432;
72485;PMS5003;60509;47.308;-122.428;2022-11-10T10:41:12;4451;4451;
72485;PMS5003;60509;47.308;-122.428;2022-11-10T10:43:36;4426;4426;
72485;PMS5003;60509;47.308;-122.428;2022-11-10T10:46:04;4413;4413;
72485;PMS5003;60509;47.308;-122.428;2022-11-10T10:48:28;4420;4420;
72485;PMS5003;60509;47.308;-122.428;2022-11-10T10:50:53;4420;4420;
72485;PMS5003;60509;47.308;-122.428;2022-11-10T10:53:19;4420;4420;
72485;PMS5003;60509;47.308;-122.428;2022-11-10T10:55:45;4407;4407;
72485;PMS5003;60509;47.308;-122.428;2022-11-10T10:58:18;4407;4407;
72485;PMS5003;60509;47.308;-122.428;2022-11-10T11:00:41;4413;4413;
72485;PMS5003;60509;47.308;-122.428;2022-11-10T11:03:02;4401;4401;
72485;PMS5003;60509;47.308;-122.428;2022-11-10T11:05:27;4389;4389;
72485;PMS5003;60509;47.308;-122.428;2022-11-10T11:07:54;4401;4401;
72485;PMS5003;60509;47.308;-122.428;2022-11-10T11:10:19;4413;4413;
72485;PMS5003;60509;47.308;-122.428;2022-11-10T11:12:44;4407;4407;
72485;PMS5003;60509;47.308;-122.428;2022-11-10T11:15:11;4382;4382;
72485;PMS5003;60509;47.308;-122.428;2022-11-10T11:17:35;4407;4407;
72485;PMS5003;60509;47.308;-122.428;2022-11-10T11:20:01;4389;4389;
72485;PMS5003;60509;47.308;-122.428;2022-11-10T11:22:31;4370;4370;
72485;PMS5003;60509;47.308;-122.428;2022-11-10T11:24:53;4382;4382;
72485;PMS5003;60509;47.308;-122.428;2022-11-10T11:27:19;4395;4395;
72485;PMS5003;60509;47.308;-122.428;2022-11-10T11:29:47;4376;4376;
72485;PMS5003;60509;47.308;-122.428;2022-11-10T11:32:16;4364;4364;
72485;PMS5003;60509;47.308;-122.428;2022-11-10T11:34:36;4358;4358;
72485;PMS5003;60509;47.308;-122.428;2022-11-10T11:37:02;4382;4382;
72485;PMS5003;60509;47.308;-122.428;2022-11-10T11:39:32;4358;4358;
72485;PMS5003;60509;47.308;-122.428;2022-11-10T11:41:55;4352;4352;
72485;PMS5003;60509;47.308;-122.428;2022-11-10T11:44:21;4340;4340;
72485;PMS5003;60509;47.308;-122.428;2022-11-10T11:46:45;4358;4358;
72485;PMS5003;60509;47.308;-122.428;2022-11-10T11:49:22;4364;4364;
72485;PMS5003;60509;47.308;-122.428;2022-11-10T11:51:38;4346;4346;
72485;PMS5003;60509;47.308;-122.428;2022-11-10T11:54:06;4334;4334;
72485;PMS5003;60509;47.308;-122.428;2022-11-10T11:56:27;4346;4346;
72485;PMS5003;60509;47.308;-122.428;2022-11-10T11:58:56;4340;4340;
72485;PMS5003;60509;47.308;-122.428;2022-11-10T12:01:22;4358;4358;
72485;PMS5003;60509;47.308;-122.428;2022-11-10T12:03:59;4346;4346;
72485;PMS5003;60509;47.308;-122.428;2022-11-10T12:06:18;4364;4364;
72485;PMS5003;60509;47.308;-122.428;2022-11-10T12:08:36;4352;4352;
72485;PMS5003;60509;47.308;-122.428;2022-11-10T12:11:03;4346;4346;
72485;PMS5003;60509;47.308;-122.428;2022-11-10T12:13:32;4364;4364;
72485;PMS5003;60509;47.308;-122.428;2022-11-10T12:15:53;4328;4328;
72485;PMS5003;60509;47.308;-122.428;2022-11-10T12:18:23;4346;4346;
72485;PMS5003;60509;47.308;-122.428;2022-11-10T12:20:47;4340;4340;
72485;PMS5003;60509;47.308;-122.428;2022-11-10T12:23:12;4358;4358;
72485;PMS5003;60509;47.308;-122.428;2022-11-10T12:25:37;4334;4334;
72485;PMS5003;60509;47.308;-122.428;2022-11-10T12:28:05;4352;4352;
72485;PMS5003;60509;47.308;-122.428;2022-11-10T12:30:27;4334;4334;
72485;PMS5003;60509;47.308;-122.428;2022-11-10T12:32:53;4346;4346;
72485;PMS5003;60509;47.308;-122.428;2022-11-10T12:35:19;4340;4340;
72485;PMS5003;60509;47.308;-122.428;2022-11-10T12:37:45;4298;4298;
72485;PMS5003;60509;47.308;-122.428;2022-11-10T12:40:13;4364;4364;
72485;PMS5003;60509;47.308;-122.428;2022-11-10T12:42:36;4370;4370;
72485;PMS5003;60509;47.308;-122.428;2022-11-10T12:45:03;4352;4352;
72485;PMS5003;60509;47.308;-122.428;2022-11-10T12:47:29;4358;4358;
72485;PMS5003;60509;47.308;-122.428;2022-11-10T12:49:54;4352;4352;
72485;PMS5003;60509;47.308;-122.428;2022-11-10T12:52:20;4334;4334;
72485;PMS5003;60509;47.308;-122.428;2022-11-10T12:54:45;4322;4322;
72485;PMS5003;60509;47.308;-122.428;2022-11-10T12:57:12;4389;4389;
72485;PMS5003;60509;47.308;-122.428;2022-11-10T12:59:36;4358;4358;
72485;PMS5003;60509;47.308;-122.428;2022-11-10T13:02:03;4382;4382;
72485;PMS5003;60509;47.308;-122.428;2022-11-10T13:04:28;4358;4358;
72485;PMS5003;60509;47.308;-122.428;2022-11-10T13:06:54;4328;4328;
72485;PMS5003;60509;47.308;-122.428;2022-11-10T13:09:21;4322;4322;
72485;PMS5003;60509;47.308;-122.428;2022-11-10T13:11:46;4376;4376;
72485;PMS5003;60509;47.308;-122.428;2022-11-10T13:14:28;4401;4401;
72485;PMS5003;60509;47.308;-122.428;2022-11-10T13:16:52;4280;4280;
72485;PMS5003;60509;47.308;-122.428;2022-11-10T13:19:02;4407;4407;
72485;PMS5003;60509;47.308;-122.428;2022-11-10T13:24:45;4370;4370;
72485;PMS5003;60509;47.308;-122.428;2022-11-10T13:26:08;4346;4346;
72485;PMS5003;60509;47.308;-122.428;2022-11-10T13:29:18;4358;4358;
72485;PMS5003;60509;47.308;-122.428;2022-11-10T13:30:59;4346;4346;
72485;PMS5003;60509;47.308;-122.428;2022-11-10T13:33:40;4346;4346;
72485;PMS5003;60509;47.308;-122.428;2022-11-10T13:35:51;4280;4280;
72485;PMS5003;60509;47.308;-122.428;2022-11-10T13:38:31;4263;4263;
72485;PMS5003;60509;47.308;-122.428;2022-11-10T13:40:42;4316;4316;
72485;PMS5003;60509;47.308;-122.428;2022-11-10T13:43:11;4328;4328;
72485;PMS5003;60509;47.308;-122.428;2022-11-10T13:45:33;4340;4340;
72485;PMS5003;60509;47.308;-122.428;2022-11-10T13:47:59;4370;4370;
72485;PMS5003;60509;47.308;-122.428;2022-11-10T13:50:28;4340;4340;
72485;PMS5003;60509;47.308;-122.428;2022-11-10T13:52:55;4364;4364;
72485;PMS5003;60509;47.308;-122.428;2022-11-10T13:55:22;4340;4340;
72485;PMS5003;60509;47.308;-122.428;2022-11-10T13:57:50;4352;4352;
72485;PMS5003;60509;47.308;-122.428;2022-11-10T14:00:22;4370;4370;
72485;PMS5003;60509;47.308;-122.428;2022-11-10T14:02:49;4280;4280;
72485;PMS5003;60509;47.308;-122.428;2022-11-10T14:04:58;4358;4358;
72485;PMS5003;60509;47.308;-122.428;2022-11-10T14:07:24;4376;4376;
72485;PMS5003;60509;47.308;-122.428;2022-11-10T14:09:50;4389;4389;
72485;PMS5003;60509;47.308;-122.428;2022-11-10T14:12:20;4407;4407;
72485;PMS5003;60509;47.308;-122.428;2022-11-10T14:14:45;4340;4340;
72485;PMS5003;60509;47.308;-122.428;2022-11-10T14:17:12;4298;4298;
72485;PMS5003;60509;47.308;-122.428;2022-11-10T14:19:36;4470;4470;
72485;PMS5003;60509;47.308;-122.428;2022-11-10T14:21:59;4426;4426;
72485;PMS5003;60509;47.308;-122.428;2022-11-10T14:24:25;4426;4426;
72485;PMS5003;60509;47.308;-122.428;2022-11-10T14:26:50;4370;4370;